Sukari Primero — EAAU — position and weather

sailwx.info

Track history (hours):
 
Tides and Currents Weather Stations Pressure Air Temp Water Temp Dewpoint Dewpoint Depression Visibility Wind Speed Wind Dir Waves Ship Positions

Sukari Primero

Last reported at 2017-Sep-09 11:59 UTC. Time now 2017-Sep-19 20:30 UTC.
Position N 48°08' W 005°19'.
Warning: this ship's position is 10 days out of date.

Length 31 m; draft 4 m.

Type: Fishing. MMSI: 224052970.

Date/timePositionNaut miles runAvg speedWind from/ knotsBaromVisibWave heightAir tempDewpointWater temp
2017-Sep-09 11:59N 48°08' W 005°19'10 9.6
2017-Sep-09 10:58N 48°08' W 005°04'5 9.9
2017-Sep-09 10:29N 48°08' W 004°57'510.0
2017-Sep-09 10:00N 48°08' W 004°50'510.1
2017-Sep-09 09:30N 48°07' W 004°42'510.3
2017-Sep-09 09:00N 48°07' W 004°35'510.3
2017-Sep-09 08:30N 48°07' W 004°27'510.0
2017-Sep-09 08:00N 48°06' W 004°20'0 0.6
2017-Sep-09 07:30N 48°06' W 004°19'0 0.0
2017-Sep-09 07:00N 48°06' W 004°20'0 0.0
2017-Sep-09 06:30N 48°06' W 004°20'0 0.0
2017-Sep-09 06:00N 48°06' W 004°20'0 0.0
2017-Sep-09 05:30N 48°06' W 004°20'0 0.0
2017-Sep-09 05:00N 48°06' W 004°20'0 0.0
2017-Sep-09 04:30N 48°06' W 004°20'0 0.0
2017-Sep-09 04:00N 48°06' W 004°20'0 0.0
2017-Sep-09 03:30N 48°06' W 004°20'0 0.0
2017-Sep-09 03:00N 48°06' W 004°20'0 0.0
2017-Sep-09 02:30N 48°06' W 004°20'0 0.0
2017-Sep-09 02:00N 48°06' W 004°20'0 0.0
2017-Sep-09 01:30N 48°06' W 004°20'0 0.0
2017-Sep-09 01:00N 48°06' W 004°20'0 0.0
2017-Sep-09 00:30N 48°06' W 004°20'0 0.0
2017-Sep-09 00:01N 48°06' W 004°20'0 0.0
2017-Sep-08 23:30N 48°06' W 004°20'0 0.0
2017-Sep-08 23:00N 48°06' W 004°20'0 0.0
2017-Sep-08 22:30N 48°06' W 004°20'0 0.0
2017-Sep-08 22:00N 48°06' W 004°20'2 3.2
2017-Sep-08 21:31N 48°07' W 004°21'4 7.2
2017-Sep-08 21:00N 48°07' W 004°27'3 7.0
2017-Sep-08 20:31N 48°07' W 004°32'3 6.7
2017-Sep-08 20:01N 48°08' W 004°37'3 5.6
2017-Sep-08 19:30N 48°08' W 004°41'3 5.6
2017-Sep-08 19:00N 48°08' W 004°45'3 5.5
2017-Sep-08 18:30N 48°08' W 004°49'3 5.5
2017-Sep-08 18:00N 48°08' W 004°54'3 5.9
2017-Sep-08 17:29N 48°09' W 004°58'3 6.5
2017-Sep-08 16:59N 48°09' W 005°03'7 7.2
2017-Sep-08 15:58N 48°09' W 005°14'  
2017-Sep-02 12:28N 48°08' W 004°55'510.4
2017-Sep-02 12:00N 48°08' W 004°48'510.3
2017-Sep-02 11:30N 48°07' W 004°40'510.2
2017-Sep-02 10:59N 48°07' W 004°32'510.4
2017-Sep-02 10:30N 48°07' W 004°25'4 7.5
2017-Sep-02 10:00N 48°06' W 004°20'0 0.0
2017-Sep-02 09:30N 48°06' W 004°20'0 0.0
2017-Sep-02 09:00N 48°06' W 004°20'0 0.0
2017-Sep-02 08:30N 48°06' W 004°20'0 0.0
2017-Sep-02 08:01N 48°06' W 004°20'0 0.0
2017-Sep-02 07:30N 48°06' W 004°20'0 0.0
2017-Sep-02 07:00N 48°06' W 004°20'0 0.0
2017-Sep-02 06:31N 48°06' W 004°20'0 0.0
2017-Sep-02 06:00N 48°06' W 004°20'0 0.0
2017-Sep-02 05:30N 48°06' W 004°20'0 0.0
2017-Sep-02 05:00N 48°06' W 004°20'0 0.0
2017-Sep-02 04:30N 48°06' W 004°20'0 0.0
2017-Sep-02 04:00N 48°06' W 004°20'0 0.0
2017-Sep-02 03:30N 48°06' W 004°20'0 0.0
2017-Sep-02 03:00N 48°06' W 004°20'0 0.0
2017-Sep-02 02:30N 48°06' W 004°20'0 0.0
2017-Sep-02 02:00N 48°06' W 004°20'0 0.0
2017-Sep-02 01:30N 48°06' W 004°20'0 0.0
2017-Sep-02 01:00N 48°06' W 004°20'0 0.0
2017-Sep-02 00:30N 48°06' W 004°20'0 0.0
2017-Sep-02 00:00N 48°06' W 004°20'0 0.0
2017-Sep-01 23:30N 48°06' W 004°20'0 0.0
2017-Sep-01 22:58N 48°06' W 004°20'0 0.0
2017-Sep-01 22:29N 48°06' W 004°20'0 0.3
2017-Sep-01 22:00N 48°06' W 004°19'3 6.6
2017-Sep-01 21:30N 48°07' W 004°24'4 7.6
2017-Sep-01 21:00N 48°07' W 004°30'4 7.5
2017-Sep-01 20:31N 48°08' W 004°35'4 7.3
2017-Sep-01 20:00N 48°08' W 004°41'4 8.3
2017-Sep-01 19:31N 48°08' W 004°47'4 8.8
2017-Sep-01 19:01N 48°08' W 004°54'10 8.8
2017-Sep-01 17:54N 48°09' W 005°08'8 8.6
2017-Sep-01 16:58N 48°10' W 005°20'  
Track history (hours):
 
Tides and Currents Weather Stations Pressure Air Temp Water Temp Dewpoint Dewpoint Depression Visibility Wind Speed Wind Dir Waves Ship Positions

Sukari Primero

Last reported at 2017-Sep-09 11:59 UTC. Time now 2017-Sep-19 20:30 UTC.
Position N 48°08' W 005°19'.
Warning: this ship's position is 10 days out of date.

Length 31 m; draft 4 m.

Type: Fishing. MMSI: 224052970.

Date/timePositionNaut miles runAvg speedWind from/ knotsBaromVisibWave heightAir tempDewpointWater temp
2017-Sep-09 11:59N 48°08' W 005°19'10 9.6
2017-Sep-09 10:58N 48°08' W 005°04'5 9.9
2017-Sep-09 10:29N 48°08' W 004°57'510.0
2017-Sep-09 10:00N 48°08' W 004°50'510.1
2017-Sep-09 09:30N 48°07' W 004°42'510.3
2017-Sep-09 09:00N 48°07' W 004°35'510.3
2017-Sep-09 08:30N 48°07' W 004°27'510.0
2017-Sep-09 08:00N 48°06' W 004°20'0 0.6
2017-Sep-09 07:30N 48°06' W 004°19'0 0.0
2017-Sep-09 07:00N 48°06' W 004°20'0 0.0
2017-Sep-09 06:30N 48°06' W 004°20'0 0.0
2017-Sep-09 06:00N 48°06' W 004°20'0 0.0
2017-Sep-09 05:30N 48°06' W 004°20'0 0.0
2017-Sep-09 05:00N 48°06' W 004°20'0 0.0
2017-Sep-09 04:30N 48°06' W 004°20'0 0.0
2017-Sep-09 04:00N 48°06' W 004°20'0 0.0
2017-Sep-09 03:30N 48°06' W 004°20'0 0.0
2017-Sep-09 03:00N 48°06' W 004°20'0 0.0
2017-Sep-09 02:30N 48°06' W 004°20'0 0.0
2017-Sep-09 02:00N 48°06' W 004°20'0 0.0
2017-Sep-09 01:30N 48°06' W 004°20'0 0.0
2017-Sep-09 01:00N 48°06' W 004°20'0 0.0
2017-Sep-09 00:30N 48°06' W 004°20'0 0.0
2017-Sep-09 00:01N 48°06' W 004°20'0 0.0
2017-Sep-08 23:30N 48°06' W 004°20'0 0.0
2017-Sep-08 23:00N 48°06' W 004°20'0 0.0
2017-Sep-08 22:30N 48°06' W 004°20'0 0.0
2017-Sep-08 22:00N 48°06' W 004°20'2 3.2
2017-Sep-08 21:31N 48°07' W 004°21'4 7.2
2017-Sep-08 21:00N 48°07' W 004°27'3 7.0
2017-Sep-08 20:31N 48°07' W 004°32'3 6.7
2017-Sep-08 20:01N 48°08' W 004°37'3 5.6
2017-Sep-08 19:30N 48°08' W 004°41'3 5.6
2017-Sep-08 19:00N 48°08' W 004°45'3 5.5
2017-Sep-08 18:30N 48°08' W 004°49'3 5.5
2017-Sep-08 18:00N 48°08' W 004°54'3 5.9
2017-Sep-08 17:29N 48°09' W 004°58'3 6.5
2017-Sep-08 16:59N 48°09' W 005°03'7 7.2
2017-Sep-08 15:58N 48°09' W 005°14'  
2017-Sep-02 12:28N 48°08' W 004°55'510.4
2017-Sep-02 12:00N 48°08' W 004°48'510.3
2017-Sep-02 11:30N 48°07' W 004°40'510.2
2017-Sep-02 10:59N 48°07' W 004°32'510.4
2017-Sep-02 10:30N 48°07' W 004°25'4 7.5
2017-Sep-02 10:00N 48°06' W 004°20'0 0.0
2017-Sep-02 09:30N 48°06' W 004°20'0 0.0
2017-Sep-02 09:00N 48°06' W 004°20'0 0.0
2017-Sep-02 08:30N 48°06' W 004°20'0 0.0
2017-Sep-02 08:01N 48°06' W 004°20'0 0.0
2017-Sep-02 07:30N 48°06' W 004°20'0 0.0
2017-Sep-02 07:00N 48°06' W 004°20'0 0.0
2017-Sep-02 06:31N 48°06' W 004°20'0 0.0
2017-Sep-02 06:00N 48°06' W 004°20'0 0.0
2017-Sep-02 05:30N 48°06' W 004°20'0 0.0
2017-Sep-02 05:00N 48°06' W 004°20'0 0.0
2017-Sep-02 04:30N 48°06' W 004°20'0 0.0
2017-Sep-02 04:00N 48°06' W 004°20'0 0.0
2017-Sep-02 03:30N 48°06' W 004°20'0 0.0
2017-Sep-02 03:00N 48°06' W 004°20'0 0.0
2017-Sep-02 02:30N 48°06' W 004°20'0 0.0
2017-Sep-02 02:00N 48°06' W 004°20'0 0.0
2017-Sep-02 01:30N 48°06' W 004°20'0 0.0
2017-Sep-02 01:00N 48°06' W 004°20'0 0.0
2017-Sep-02 00:30N 48°06' W 004°20'0 0.0
2017-Sep-02 00:00N 48°06' W 004°20'0 0.0
2017-Sep-01 23:30N 48°06' W 004°20'0 0.0
2017-Sep-01 22:58N 48°06' W 004°20'0 0.0
2017-Sep-01 22:29N 48°06' W 004°20'0 0.3
2017-Sep-01 22:00N 48°06' W 004°19'3 6.6
2017-Sep-01 21:30N 48°07' W 004°24'4 7.6
2017-Sep-01 21:00N 48°07' W 004°30'4 7.5
2017-Sep-01 20:31N 48°08' W 004°35'4 7.3
2017-Sep-01 20:00N 48°08' W 004°41'4 8.3
2017-Sep-01 19:31N 48°08' W 004°47'4 8.8
2017-Sep-01 19:01N 48°08' W 004°54'10 8.8
2017-Sep-01 17:54N 48°09' W 005°08'8 8.6
2017-Sep-01 16:58N 48°10' W 005°20'  

Dump ship's entire track history